Time;durP1;ratioP1;P1;durP2;ratioP2;P2;SDS_P1;SDS_P2;PMS_P1;PMS_P2;Temp;Humidity;BMP_temperature;BMP_pressure;BME280_temperature;BME280_humidity;BME280_pressure;Samples;Min_cycle;Max_cycle;Signal;HPM_P1;HPM_P2
2023/05/15 00:01:48;;;;;;;;;;;16.70;99.90;;;;;;5093024;28;19917;-69
2023/05/15 00:04:15;;;;;;;;;;;16.70;99.90;;;;;;5093056;28;20353;-69
2023/05/15 00:06:41;;;;;;;;;;;16.80;99.90;;;;;;5093269;28;19908;-70
2023/05/15 00:09:08;;;;;;;;;;;16.80;99.90;;;;;;5092504;28;19908;-68
2023/05/15 00:11:35;;;;;;;;;;;16.80;99.90;;;;;;5092488;28;20272;-67
2023/05/15 00:14:01;;;;;;;;;;;16.90;99.90;;;;;;5092846;28;19916;-68
2023/05/15 00:16:28;;;;;;;;;;;16.90;99.90;;;;;;5093153;28;19923;-68
2023/05/15 00:18:55;;;;;;;;;;;16.90;99.90;;;;;;5092364;28;20327;-70
2023/05/15 00:21:21;;;;;;;;;;;17.00;99.90;;;;;;5093161;28;19908;-69
2023/05/15 00:23:48;;;;;;;;;;;17.10;99.90;;;;;;5092328;28;19959;-68
2023/05/15 00:26:14;;;;;;;;;;;17.20;99.90;;;;;;5092642;28;19912;-69
2023/05/15 00:28:41;;;;;;;;;;;17.40;99.90;;;;;;5092124;28;19912;-69
2023/05/15 00:31:08;;;;;;;;;;;17.50;99.90;;;;;;5091949;28;20351;-69
2023/05/15 00:33:34;;;;;;;;;;;17.70;99.90;;;;;;5073943;28;19999;-67
2023/05/15 00:36:01;;;;;;;;;;;17.90;99.90;;;;;;5092364;28;20003;-69
2023/05/15 00:38:27;;;;;;;;;;;18.00;99.90;;;;;;5092190;28;20380;-68
2023/05/15 00:40:55;;;;;;;;;;;18.10;99.90;;;;;;5090973;28;20326;-69
2023/05/15 00:43:22;;;;;;;;;;;18.20;99.90;;;;;;5091629;28;20365;-68
2023/05/15 00:45:49;;;;;;;;;;;18.50;99.90;;;;;;5091088;28;19919;-69
2023/05/15 00:48:16;;;;;;;;;;;18.70;99.90;;;;;;5091889;28;19957;-68
2023/05/15 00:50:43;;;;;;;;;;;18.70;99.90;;;;;;5091710;28;19912;-68
2023/05/15 00:53:10;;;;;;;;;;;18.90;99.90;;;;;;5091979;28;19912;-68
2023/05/15 00:55:37;;;;;;;;;;;19.10;99.90;;;;;;5091620;28;19919;-68
2023/05/15 00:58:04;;;;;;;;;;;19.20;99.90;;;;;;5092049;28;19938;-68
2023/05/15 01:00:31;;;;;;;;;;;19.30;99.90;;;;;;5091938;28;19920;-69
2023/05/15 01:02:58;;;;;;;;;;;19.20;99.90;;;;;;5091669;28;19920;-68
2023/05/15 01:05:25;;;;;;;;;;;19.30;99.90;;;;;;5090786;28;20347;-69
2023/05/15 01:07:56;;;;;;;;;;;19.30;99.90;;;;;;5090941;28;19998;-69
2023/05/15 01:10:23;;;;;;;;;;;19.20;99.90;;;;;;5091001;28;19915;-69
2023/05/15 01:12:50;;;;;;;;;;;19.30;99.90;;;;;;5091655;28;20369;-67
2023/05/15 01:15:17;;;;;;;;;;;19.40;99.90;;;;;;5091416;28;19919;-68
2023/05/15 01:17:44;;;;;;;;;;;19.60;99.90;;;;;;5091553;28;20392;-67
2023/05/15 01:20:11;;;;;;;;;;;19.90;99.90;;;;;;5091416;28;19908;-70
2023/05/15 01:22:46;;;;;;;;;;;20.00;99.90;;;;;;5091026;28;19926;-69
2023/05/15 01:25:22;;;;;;;;;;;20.10;99.90;;;;;;5091018;28;19947;-69
2023/05/15 01:27:54;;;;;;;;;;;20.10;99.90;;;;;;5091612;28;19912;-69
2023/05/15 01:30:29;;;;;;;;;;;20.10;99.90;;;;;;5091663;28;19913;-67
2023/05/15 01:33:15;;;;;;;;;;;20.40;99.90;;;;;;5090697;28;19919;-69
2023/05/15 01:36:00;;;;;;;;;;;20.40;99.90;;;;;;5090701;28;20459;-70
2023/05/15 01:38:45;;;;;;;;;;;20.50;99.90;;;;;;5088311;28;20574;-69
2023/05/15 01:41:28;;;;;;;;;;;20.50;99.90;;;;;;5091485;28;20420;-69
2023/05/15 01:43:56;;;;;;;;;;;20.70;99.90;;;;;;5090184;28;19921;-68
2023/05/15 01:46:24;;;;;;;;;;;20.80;99.90;;;;;;5092384;28;19908;-68
2023/05/15 01:48:51;;;;;;;;;;;21.00;99.90;;;;;;5091591;28;19915;-69
2023/05/15 01:51:19;;;;;;;;;;;21.10;99.90;;;;;;5092022;28;19908;-69
2023/05/15 01:53:46;;;;;;;;;;;21.30;99.90;;;;;;5091221;28;19912;-68
2023/05/15 01:56:14;;;;;;;;;;;21.30;99.90;;;;;;5092354;28;20007;-70
2023/05/15 01:58:41;;;;;;;;;;;21.30;99.90;;;;;;5094780;28;19913;-69
2023/05/15 02:01:08;;;;;;;;;;;21.30;99.90;;;;;;5095412;28;20345;-70
2023/05/15 02:03:35;;;;;;;;;;;21.30;99.90;;;;;;5094947;28;19935;-68
2023/05/15 02:06:02;;;;;;;;;;;21.30;99.90;;;;;;5094908;28;19943;-69
2023/05/15 02:08:30;;;;;;;;;;;21.20;99.90;;;;;;5095368;28;19908;-69
2023/05/15 02:10:57;;;;;;;;;;;21.30;99.90;;;;;;5094582;28;19954;-68
2023/05/15 02:13:25;;;;;;;;;;;21.30;99.90;;;;;;5095457;28;20066;-70
2023/05/15 02:15:52;;;;;;;;;;;21.50;99.90;;;;;;5094869;28;20359;-69
2023/05/15 02:18:19;;;;;;;;;;;21.50;99.90;;;;;;5095290;28;19908;-71
2023/05/15 02:20:46;;;;;;;;;;;21.50;99.90;;;;;;5094884;28;19947;-67
2023/05/15 02:23:12;;;;;;;;;;;21.60;99.90;;;;;;5094523;28;20289;-69
2023/05/15 02:25:59;;;;;;;;;;;21.80;99.90;;;;;;5094628;28;19916;-69
2023/05/15 02:28:42;;;;;;;;;;;21.90;99.90;;;;;;5094809;28;19915;-69
2023/05/15 02:31:13;;;;;;;;;;;22.00;99.90;;;;;;5094537;28;20373;-69
2023/05/15 02:33:46;;;;;;;;;;;22.10;99.90;;;;;;5094573;28;19920;-69
2023/05/15 02:36:15;;;;;;;;;;;22.40;99.90;;;;;;5093077;28;20068;-67
2023/05/15 02:38:46;;;;;;;;;;;22.50;99.90;;;;;;5094837;28;19999;-68
2023/05/15 02:41:14;;;;;;;;;;;22.60;99.90;;;;;;5094686;28;20290;-68
2023/05/15 02:43:41;;;;;;;;;;;22.70;99.90;;;;;;5094224;28;19920;-68
2023/05/15 02:46:08;;;;;;;;;;;22.80;99.90;;;;;;5094850;28;19915;-69
2023/05/15 02:48:37;;;;;;;;;;;22.60;99.90;;;;;;5094420;28;20003;-69
2023/05/15 02:51:05;;;;;;;;;;;22.80;99.90;;;;;;5094309;28;19931;-66
2023/05/15 02:53:32;;;;;;;;;;;22.90;99.90;;;;;;5094653;28;19915;-69
2023/05/15 02:55:59;;;;;;;;;;;22.90;99.90;;;;;;5076228;28;19915;-69
2023/05/15 02:58:26;;;;;;;;;;;22.90;99.90;;;;;;5094490;28;20307;-69
2023/05/15 03:00:52;;;;;;;;;;;23.00;99.90;;;;;;5094592;28;19908;-68
2023/05/15 03:03:19;;;;;;;;;;;23.40;99.90;;;;;;5094356;28;19923;-70
2023/05/15 03:05:46;;;;;;;;;;;23.60;99.90;;;;;;5094385;28;19908;-68
2023/05/15 03:08:12;;;;;;;;;;;24.00;99.90;;;;;;5093122;28;20337;-67
2023/05/15 03:10:39;;;;;;;;;;;24.60;99.70;;;;;;5092833;28;19912;-70
2023/05/15 03:13:06;;;;;;;;;;;24.80;99.10;;;;;;5093786;28;19908;-68
2023/05/15 03:15:32;;;;;;;;;;;24.70;99.10;;;;;;5093933;28;19915;-68
2023/05/15 03:17:59;;;;;;;;;;;24.90;98.40;;;;;;5094225;28;20315;-69
2023/05/15 03:20:25;;;;;;;;;;;24.70;98.60;;;;;;5094234;28;19915;-69
2023/05/15 03:22:52;;;;;;;;;;;24.40;98.90;;;;;;5093887;28;19922;-69
2023/05/15 03:25:19;;;;;;;;;;;24.30;99.60;;;;;;5093189;28;20445;-69
2023/05/15 03:27:46;;;;;;;;;;;25.00;98.50;;;;;;5093620;28;20365;-69
2023/05/15 03:30:13;;;;;;;;;;;24.90;98.20;;;;;;5094025;28;19912;-69
2023/05/15 03:32:39;;;;;;;;;;;24.40;99.10;;;;;;5093502;28;19957;-69
2023/05/15 03:35:06;;;;;;;;;;;24.00;99.90;;;;;;5093611;28;20315;-70
2023/05/15 03:37:33;;;;;;;;;;;23.40;99.90;;;;;;5093735;28;20061;-69
2023/05/15 03:39:59;;;;;;;;;;;22.90;99.90;;;;;;5093648;28;19909;-68
2023/05/15 03:42:26;;;;;;;;;;;22.40;99.90;;;;;;5091638;28;19920;-68
2023/05/15 03:44:54;;;;;;;;;;;21.90;99.90;;;;;;5092667;28;19913;-71
2023/05/15 03:47:21;;;;;;;;;;;21.20;99.90;;;;;;5092635;28;19931;-71
2023/05/15 03:49:48;;;;;;;;;;;20.90;99.90;;;;;;5093633;28;20383;-71
2023/05/15 03:52:15;;;;;;;;;;;20.50;99.90;;;;;;5093184;28;19955;-71
2023/05/15 03:54:41;;;;;;;;;;;20.20;99.90;;;;;;5093366;28;19919;-70
2023/05/15 03:57:08;;;;;;;;;;;20.00;99.90;;;;;;5093564;28;19934;-69
2023/05/15 03:59:35;;;;;;;;;;;19.70;99.90;;;;;;5093827;28;19914;-70
2023/05/15 04:02:01;;;;;;;;;;;19.60;99.90;;;;;;5091381;28;19943;-70
2023/05/15 04:04:28;;;;;;;;;;;19.40;99.90;;;;;;5091285;28;19937;-70
2023/05/15 04:06:55;;;;;;;;;;;19.20;99.90;;;;;;5091499;28;19955;-70
2023/05/15 04:09:21;;;;;;;;;;;19.10;99.90;;;;;;5091322;28;20331;-68
2023/05/15 04:11:48;;;;;;;;;;;19.10;99.90;;;;;;5091477;28;19908;-71
2023/05/15 04:14:14;;;;;;;;;;;18.90;99.90;;;;;;5091405;28;19912;-69
2023/05/15 04:16:41;;;;;;;;;;;18.90;99.90;;;;;;5092553;28;19908;-71
2023/05/15 04:19:08;;;;;;;;;;;18.80;99.90;;;;;;5093009;28;19915;-70
2023/05/15 04:21:34;;;;;;;;;;;18.90;99.90;;;;;;5087803;28;19912;-70
2023/05/15 04:24:01;;;;;;;;;;;19.00;99.90;;;;;;5092849;28;21919;-70
2023/05/15 04:26:27;;;;;;;;;;;19.00;99.90;;;;;;5093013;28;19965;-70
2023/05/15 04:28:55;;;;;;;;;;;19.10;99.90;;;;;;5093317;28;19919;-71
2023/05/15 04:31:23;;;;;;;;;;;19.30;99.90;;;;;;5092990;28;20353;-68
2023/05/15 04:33:49;;;;;;;;;;;19.50;99.90;;;;;;5092464;28;19908;-70
2023/05/15 04:36:16;;;;;;;;;;;19.80;99.90;;;;;;5074476;28;20369;-71
2023/05/15 04:38:43;;;;;;;;;;;20.10;99.90;;;;;;5091019;28;19966;-68
2023/05/15 04:41:10;;;;;;;;;;;20.50;99.90;;;;;;5091601;28;19961;-69
2023/05/15 04:43:36;;;;;;;;;;;20.90;99.90;;;;;;5098178;28;20283;-70
2023/05/15 04:46:03;;;;;;;;;;;21.10;99.90;;;;;;5091729;28;19912;-70
2023/05/15 04:48:30;;;;;;;;;;;21.20;99.90;;;;;;5092557;28;20269;-68
2023/05/15 04:50:57;;;;;;;;;;;21.20;99.90;;;;;;5092042;28;20006;-68
2023/05/15 04:53:23;;;;;;;;;;;21.20;99.90;;;;;;5091427;28;20425;-68
2023/05/15 04:55:50;;;;;;;;;;;21.10;99.90;;;;;;5092952;28;20053;-69
2023/05/15 04:58:17;;;;;;;;;;;20.80;99.90;;;;;;5096249;28;19919;-69
2023/05/15 05:00:43;;;;;;;;;;;20.70;99.90;;;;;;5091440;28;19915;-68
2023/05/15 05:03:10;;;;;;;;;;;20.60;99.90;;;;;;5091767;28;20300;-70
2023/05/15 05:05:37;;;;;;;;;;;20.60;99.90;;;;;;5092159;28;19915;-70
2023/05/15 05:08:03;;;;;;;;;;;20.80;99.90;;;;;;5073615;28;19916;-69
2023/05/15 05:10:30;;;;;;;;;;;20.90;99.90;;;;;;5091883;28;19915;-69
2023/05/15 05:12:56;;;;;;;;;;;21.00;99.90;;;;;;5091813;28;19916;-68
2023/05/15 05:15:23;;;;;;;;;;;21.00;99.90;;;;;;5091688;28;19908;-69
2023/05/15 05:17:50;;;;;;;;;;;21.20;99.90;;;;;;5091419;28;19973;-69
2023/05/15 05:20:16;;;;;;;;;;;21.40;99.90;;;;;;5091670;28;19940;-70
2023/05/15 05:22:43;;;;;;;;;;;21.50;99.90;;;;;;5090407;28;19929;-69
2023/05/15 05:25:10;;;;;;;;;;;21.40;99.90;;;;;;5090584;28;19916;-68
2023/05/15 05:27:36;;;;;;;;;;;21.10;99.90;;;;;;5091314;28;19908;-69
2023/05/15 05:30:03;;;;;;;;;;;20.90;99.90;;;;;;5091927;28;20356;-70
2023/05/15 05:32:30;;;;;;;;;;;21.00;99.90;;;;;;5093649;28;20006;-69
2023/05/15 05:34:56;;;;;;;;;;;21.20;99.90;;;;;;5095842;28;19943;-69
2023/05/15 05:37:23;;;;;;;;;;;21.40;99.90;;;;;;5095216;28;20010;-70
2023/05/15 05:39:50;;;;;;;;;;;21.50;99.90;;;;;;5094979;28;19916;-69
2023/05/15 05:42:16;;;;;;;;;;;21.70;99.90;;;;;;5093849;28;19916;-70
2023/05/15 05:44:43;;;;;;;;;;;21.80;99.90;;;;;;5092998;28;19970;-69
2023/05/15 05:47:09;;;;;;;;;;;21.90;99.90;;;;;;5093933;28;20382;-69
2023/05/15 05:49:36;;;;;;;;;;;22.00;99.90;;;;;;5094133;28;19912;-70
2023/05/15 05:52:09;;;;;;;;;;;22.00;99.90;;;;;;5093581;28;19930;-70
2023/05/15 05:54:35;;;;;;;;;;;22.10;99.90;;;;;;5090538;28;19912;-68
2023/05/15 05:57:02;;;;;;;;;;;22.20;99.90;;;;;;5089900;28;20411;-69
2023/05/15 05:59:29;;;;;;;;;;;22.20;99.90;;;;;;5093096;28;19915;-69
2023/05/15 06:01:56;;;;;;;;;;;22.40;99.90;;;;;;5093116;28;19912;-69
2023/05/15 06:04:22;;;;;;;;;;;22.70;99.90;;;;;;5092736;28;19927;-69
2023/05/15 06:06:49;;;;;;;;;;;22.90;99.90;;;;;;5093271;28;19908;-69
2023/05/15 06:09:16;;;;;;;;;;;23.10;99.90;;;;;;5093795;28;19912;-70
2023/05/15 06:11:44;;;;;;;;;;;23.40;99.90;;;;;;5093258;28;19912;-69
2023/05/15 06:14:10;;;;;;;;;;;23.80;99.90;;;;;;5092133;28;19908;-70
2023/05/15 06:16:37;;;;;;;;;;;24.30;99.90;;;;;;5092784;28;19908;-70
2023/05/15 06:19:04;;;;;;;;;;;24.90;99.90;;;;;;5092915;28;20272;-70
2023/05/15 06:21:30;;;;;;;;;;;25.30;98.70;;;;;;5093861;28;19962;-70
2023/05/15 06:23:58;;;;;;;;;;;25.00;98.10;;;;;;5092536;28;19920;-69
2023/05/15 06:26:24;;;;;;;;;;;24.20;99.00;;;;;;5092429;28;19955;-69
2023/05/15 06:28:51;;;;;;;;;;;23.40;99.90;;;;;;5093327;28;19912;-69
2023/05/15 06:31:17;;;;;;;;;;;22.70;99.90;;;;;;5092965;28;19918;-69
2023/05/15 06:33:44;;;;;;;;;;;22.20;99.90;;;;;;5092560;28;19915;-68
2023/05/15 06:36:11;;;;;;;;;;;21.80;99.90;;;;;;5093361;28;20380;-69
2023/05/15 06:38:38;;;;;;;;;;;21.40;99.90;;;;;;5093348;28;19915;-69
2023/05/15 06:41:05;;;;;;;;;;;21.10;99.90;;;;;;5092555;28;19919;-69
2023/05/15 06:43:31;;;;;;;;;;;20.60;99.90;;;;;;5088960;28;19942;-68
2023/05/15 06:45:58;;;;;;;;;;;20.30;99.90;;;;;;5088659;28;19909;-69
2023/05/15 06:48:25;;;;;;;;;;;20.00;99.90;;;;;;5079694;28;20326;-68
2023/05/15 06:50:51;;;;;;;;;;;19.80;99.90;;;;;;5086921;28;19916;-68
2023/05/15 06:53:19;;;;;;;;;;;19.60;99.90;;;;;;5073620;28;19912;-69
2023/05/15 06:55:46;;;;;;;;;;;19.30;99.90;;;;;;5092080;28;20329;-68
2023/05/15 06:58:13;;;;;;;;;;;19.10;99.90;;;;;;5092081;28;19977;-69
2023/05/15 07:00:39;;;;;;;;;;;19.00;99.90;;;;;;5092734;28;19912;-69
2023/05/15 07:03:06;;;;;;;;;;;18.90;99.90;;;;;;5092718;28;19923;-69
2023/05/15 07:05:33;;;;;;;;;;;18.70;99.90;;;;;;5093758;28;19908;-68
2023/05/15 07:07:59;;;;;;;;;;;18.50;99.90;;;;;;5075214;28;20401;-69
2023/05/15 07:10:26;;;;;;;;;;;18.30;99.90;;;;;;5093066;28;19919;-67
2023/05/15 07:12:53;;;;;;;;;;;18.30;99.90;;;;;;5092432;28;19909;-69
2023/05/15 07:15:20;;;;;;;;;;;18.00;99.90;;;;;;5087950;28;19916;-68
2023/05/15 07:17:47;;;;;;;;;;;17.90;99.90;;;;;;5092200;28;20458;-67
2023/05/15 07:20:13;;;;;;;;;;;17.90;99.90;;;;;;5073824;28;19919;-67
2023/05/15 07:22:40;;;;;;;;;;;17.70;99.90;;;;;;5092021;28;19920;-68
2023/05/15 07:25:07;;;;;;;;;;;17.60;99.90;;;;;;5093178;28;19968;-66
2023/05/15 07:27:34;;;;;;;;;;;17.50;99.90;;;;;;5089395;28;19930;-66
2023/05/15 07:30:02;;;;;;;;;;;17.40;99.90;;;;;;5089915;28;19908;-67
2023/05/15 07:32:29;;;;;;;;;;;17.30;99.90;;;;;;5093513;28;19915;-66
2023/05/15 07:34:56;;;;;;;;;;;17.20;99.90;;;;;;5093090;28;19916;-69
2023/05/15 07:37:23;;;;;;;;;;;17.10;99.90;;;;;;5093177;28;19908;-68
2023/05/15 07:39:50;;;;;;;;;;;17.00;99.90;;;;;;5093591;28;19962;-68
2023/05/15 07:42:17;;;;;;;;;;;17.00;99.90;;;;;;5093300;28;19920;-68
2023/05/15 07:44:43;;;;;;;;;;;16.90;99.90;;;;;;5093140;28;19923;-68
2023/05/15 07:47:10;;;;;;;;;;;16.90;99.90;;;;;;5092595;28;19912;-69
2023/05/15 07:49:37;;;;;;;;;;;16.70;99.90;;;;;;5092766;28;19912;-68
2023/05/15 07:52:03;;;;;;;;;;;16.60;99.90;;;;;;5093129;28;20376;-68
2023/05/15 07:54:31;;;;;;;;;;;16.60;99.90;;;;;;5092943;28;19908;-69
2023/05/15 07:56:57;;;;;;;;;;;16.50;99.90;;;;;;5092935;28;19934;-69
2023/05/15 07:59:24;;;;;;;;;;;16.50;99.90;;;;;;5093584;28;19931;-68
2023/05/15 08:01:50;;;;;;;;;;;16.40;99.90;;;;;;5093080;28;20008;-69
2023/05/15 08:04:17;;;;;;;;;;;16.30;99.90;;;;;;5092229;28;19923;-68
2023/05/15 08:06:44;;;;;;;;;;;16.20;99.90;;;;;;5092109;28;19912;-69
2023/05/15 08:09:11;;;;;;;;;;;16.30;99.90;;;;;;5092419;28;19914;-68
2023/05/15 08:11:38;;;;;;;;;;;16.20;99.90;;;;;;5092366;28;20507;-68
2023/05/15 08:14:04;;;;;;;;;;;16.10;99.90;;;;;;5092439;28;19916;-68
2023/05/15 08:16:31;;;;;;;;;;;16.10;99.90;;;;;;5092213;28;20284;-69
2023/05/15 08:19:00;;;;;;;;;;;16.10;99.90;;;;;;5092836;28;19908;-68
2023/05/15 08:21:27;;;;;;;;;;;16.00;99.90;;;;;;5093033;28;19912;-69
2023/05/15 08:23:53;;;;;;;;;;;16.00;99.90;;;;;;5092505;28;19923;-67
2023/05/15 08:26:20;;;;;;;;;;;16.00;99.90;;;;;;5092149;28;19912;-68
2023/05/15 08:28:47;;;;;;;;;;;15.90;99.90;;;;;;5092454;28;19994;-68
2023/05/15 08:31:13;;;;;;;;;;;15.80;99.90;;;;;;5092465;28;19913;-68
2023/05/15 08:33:40;;;;;;;;;;;15.90;99.90;;;;;;5092536;28;19930;-68
2023/05/15 08:36:07;;;;;;;;;;;15.80;99.90;;;;;;5092226;28;20008;-68
2023/05/15 08:38:34;;;;;;;;;;;15.80;99.90;;;;;;5091646;28;19912;-69
2023/05/15 08:41:21;;;;;;;;;;;15.80;99.90;;;;;;5091408;28;19949;-68
2023/05/15 08:43:49;;;;;;;;;;;15.80;99.90;;;;;;5091385;28;20331;-69
2023/05/15 08:46:19;;;;;;;;;;;15.70;99.90;;;;;;5091539;28;20385;-68
2023/05/15 08:48:47;;;;;;;;;;;15.60;99.90;;;;;;5091963;28;19908;-69
2023/05/15 08:51:13;;;;;;;;;;;15.60;99.90;;;;;;5091893;28;20296;-69
2023/05/15 08:53:40;;;;;;;;;;;15.60;99.90;;;;;;5091149;28;19962;-69
2023/05/15 08:56:08;;;;;;;;;;;15.60;99.90;;;;;;5091853;28;19947;-68
2023/05/15 08:58:35;;;;;;;;;;;15.50;99.90;;;;;;5089452;28;20605;-69
2023/05/15 09:01:02;;;;;;;;;;;15.50;99.90;;;;;;5091640;28;19912;-69
2023/05/15 09:03:29;;;;;;;;;;;15.50;99.90;;;;;;5092276;28;20269;-70
2023/05/15 09:05:57;;;;;;;;;;;15.50;99.90;;;;;;5091891;28;19908;-68
2023/05/15 09:08:24;;;;;;;;;;;15.40;99.90;;;;;;5092045;28;19916;-69
2023/05/15 09:10:53;;;;;;;;;;;15.40;99.90;;;;;;5092332;28;19908;-69
2023/05/15 09:13:19;;;;;;;;;;;15.40;99.90;;;;;;5091880;28;20002;-68
2023/05/15 09:15:49;;;;;;;;;;;15.40;99.90;;;;;;5091640;28;19916;-69
2023/05/15 09:18:16;;;;;;;;;;;15.40;99.90;;;;;;5090711;28;20007;-68
2023/05/15 09:20:42;;;;;;;;;;;15.30;99.90;;;;;;5091484;28;19919;-67
2023/05/15 09:23:29;;;;;;;;;;;15.30;99.90;;;;;;5090911;28;19916;-68
2023/05/15 09:25:56;;;;;;;;;;;15.30;99.90;;;;;;5089553;28;19916;-69
2023/05/15 09:28:30;;;;;;;;;;;15.20;99.90;;;;;;5090887;28;20361;-68
2023/05/15 09:30:58;;;;;;;;;;;15.10;99.90;;;;;;5089233;28;19931;-68
2023/05/15 09:33:43;;;;;;;;;;;15.10;99.90;;;;;;5090964;28;19982;-68
2023/05/15 09:36:10;;;;;;;;;;;15.10;99.90;;;;;;5088272;28;19957;-66
2023/05/15 09:38:41;;;;;;;;;;;15.10;99.90;;;;;;5091447;28;19923;-69
2023/05/15 09:41:08;;;;;;;;;;;15.10;99.90;;;;;;5091645;28;19912;-68
2023/05/15 09:43:38;;;;;;;;;;;15.10;99.90;;;;;;5090291;28;19923;-70
2023/05/15 09:46:07;;;;;;;;;;;15.10;99.90;;;;;;5088286;28;19919;-69
2023/05/15 09:48:34;;;;;;;;;;;15.10;99.90;;;;;;5090155;28;19932;-67
2023/05/15 09:51:01;;;;;;;;;;;15.00;99.90;;;;;;5087530;28;20284;-67
2023/05/15 09:53:29;;;;;;;;;;;15.00;99.90;;;;;;5091651;28;20039;-69
2023/05/15 09:55:56;;;;;;;;;;;15.00;99.90;;;;;;5089951;28;19920;-68
2023/05/15 09:58:22;;;;;;;;;;;14.90;99.90;;;;;;5092244;28;19920;-69
2023/05/15 10:00:49;;;;;;;;;;;14.90;99.90;;;;;;5091933;28;20268;-67
2023/05/15 10:03:19;;;;;;;;;;;14.90;99.90;;;;;;5090778;28;19916;-67
2023/05/15 10:05:46;;;;;;;;;;;14.90;99.90;;;;;;5091114;28;19919;-67
2023/05/15 10:08:14;;;;;;;;;;;14.80;99.90;;;;;;5091824;28;19961;-67
2023/05/15 10:10:42;;;;;;;;;;;14.90;99.90;;;;;;5104487;28;19908;-66
2023/05/15 10:13:08;;;;;;;;;;;14.80;99.90;;;;;;5091201;28;19908;-67
2023/05/15 10:15:36;;;;;;;;;;;14.80;99.90;;;;;;5090687;28;19916;-67
2023/05/15 10:18:03;;;;;;;;;;;14.80;99.90;;;;;;5090570;28;19912;-67
2023/05/15 10:20:30;;;;;;;;;;;14.70;99.90;;;;;;5093777;28;20003;-65
2023/05/15 10:22:58;;;;;;;;;;;14.80;99.90;;;;;;5075272;28;19939;-67
2023/05/15 10:25:43;;;;;;;;;;;14.70;99.90;;;;;;5093830;28;19916;-66
2023/05/15 10:28:10;;;;;;;;;;;14.70;99.90;;;;;;5092447;28;19912;-67
2023/05/15 10:30:37;;;;;;;;;;;14.70;99.90;;;;;;5090606;28;19919;-67
2023/05/15 10:33:04;;;;;;;;;;;14.60;99.90;;;;;;5093631;28;19978;-67
2023/05/15 10:35:31;;;;;;;;;;;14.60;99.90;;;;;;5094083;28;19951;-68
2023/05/15 10:37:58;;;;;;;;;;;14.60;99.90;;;;;;5075490;28;19915;-68
2023/05/15 10:40:24;;;;;;;;;;;14.50;99.90;;;;;;5094342;28;19908;-69
2023/05/15 10:42:53;;;;;;;;;;;14.50;99.90;;;;;;5093627;28;19966;-68
2023/05/15 10:45:20;;;;;;;;;;;14.50;99.90;;;;;;5095779;28;19920;-67
2023/05/15 10:47:47;;;;;;;;;;;14.50;99.90;;;;;;5094026;28;20365;-68
2023/05/15 10:50:14;;;;;;;;;;;14.50;99.90;;;;;;5094213;28;20349;-67
2023/05/15 10:52:41;;;;;;;;;;;14.50;99.90;;;;;;5094273;28;20253;-66
2023/05/15 10:55:08;;;;;;;;;;;14.50;99.90;;;;;;5094915;28;19909;-67
2023/05/15 10:57:36;;;;;;;;;;;14.50;99.90;;;;;;5094567;28;20376;-67
2023/05/15 11:00:04;;;;;;;;;;;14.50;99.90;;;;;;5094454;28;19908;-66
2023/05/15 11:02:37;;;;;;;;;;;14.40;99.90;;;;;;5094412;28;19916;-68
2023/05/15 11:05:04;;;;;;;;;;;14.40;99.90;;;;;;5094060;28;19999;-66
2023/05/15 11:07:30;;;;;;;;;;;14.40;99.90;;;;;;5094395;28;20360;-67
2023/05/15 11:09:57;;;;;;;;;;;14.40;99.90;;;;;;5094199;28;19932;-68
2023/05/15 11:12:24;;;;;;;;;;;14.40;99.90;;;;;;5093934;28;19915;-66
2023/05/15 11:14:56;;;;;;;;;;;14.40;99.90;;;;;;5093923;28;19912;-67
2023/05/15 11:17:23;;;;;;;;;;;14.30;99.90;;;;;;5094002;28;20265;-67
2023/05/15 11:19:50;;;;;;;;;;;14.30;99.90;;;;;;5094430;28;20345;-68
2023/05/15 11:22:34;;;;;;;;;;;14.30;99.90;;;;;;5093764;28;19916;-67
2023/05/15 11:25:01;;;;;;;;;;;14.30;99.90;;;;;;5094279;28;19961;-66
2023/05/15 11:27:45;;;;;;;;;;;14.30;99.90;;;;;;5093978;28;20381;-67
2023/05/15 11:30:12;;;;;;;;;;;14.20;99.90;;;;;;5093272;28;19908;-69
2023/05/15 11:32:57;;;;;;;;;;;14.20;99.90;;;;;;5094038;28;19953;-69
2023/05/15 11:35:42;;;;;;;;;;;14.10;99.90;;;;;;5093657;28;19912;-69
2023/05/15 11:38:09;;;;;;;;;;;14.10;99.90;;;;;;5093748;28;19912;-67
2023/05/15 11:40:48;;;;;;;;;;;14.10;99.90;;;;;;5093785;28;19908;-68
2023/05/15 11:43:28;;;;;;;;;;;14.10;99.90;;;;;;5093392;28;19994;-69
2023/05/15 11:45:56;;;;;;;;;;;14.10;99.90;;;;;;5104284;28;19913;-65
2023/05/15 11:48:33;;;;;;;;;;;14.10;99.90;;;;;;5103924;28;19913;-66
2023/05/15 11:51:03;;;;;;;;;;;14.10;99.90;;;;;;5086423;28;19916;-67
2023/05/15 11:53:30;;;;;;;;;;;14.10;99.90;;;;;;5093387;28;19912;-67
2023/05/15 11:55:57;;;;;;;;;;;14.00;99.90;;;;;;5093471;28;20377;-66
2023/05/15 11:58:24;;;;;;;;;;;14.00;99.90;;;;;;5093566;28;19915;-66
2023/05/15 12:00:52;;;;;;;;;;;14.00;99.90;;;;;;5093085;28;20049;-67
2023/05/15 12:03:22;;;;;;;;;;;14.00;99.90;;;;;;5092500;28;19920;-67
2023/05/15 12:05:50;;;;;;;;;;;14.00;99.90;;;;;;5092930;28;19912;-66
2023/05/15 12:08:16;;;;;;;;;;;14.00;99.90;;;;;;5093013;28;19916;-69
2023/05/15 12:10:44;;;;;;;;;;;13.90;99.90;;;;;;5092266;28;20273;-69
2023/05/15 12:13:11;;;;;;;;;;;13.90;99.90;;;;;;5093340;28;19909;-66
2023/05/15 12:15:39;;;;;;;;;;;13.90;99.90;;;;;;5092318;28;19912;-69
2023/05/15 12:18:06;;;;;;;;;;;13.90;99.90;;;;;;5093293;28;20010;-66
2023/05/15 12:20:34;;;;;;;;;;;13.90;99.90;;;;;;5093778;28;19916;-69
2023/05/15 12:23:02;;;;;;;;;;;13.80;99.90;;;;;;5093229;28;19916;-67
2023/05/15 12:25:30;;;;;;;;;;;13.80;99.90;;;;;;5093439;28;19963;-66
2023/05/15 12:27:57;;;;;;;;;;;13.80;99.90;;;;;;5092911;28;19958;-66
2023/05/15 12:30:23;;;;;;;;;;;13.80;99.90;;;;;;5093414;28;19908;-66
2023/05/15 12:32:50;;;;;;;;;;;13.80;99.90;;;;;;5092807;28;19919;-67
2023/05/15 12:35:18;;;;;;;;;;;13.80;99.90;;;;;;5092667;28;19912;-68
2023/05/15 12:37:45;;;;;;;;;;;13.70;99.90;;;;;;5093355;28;20372;-68
2023/05/15 12:40:13;;;;;;;;;;;13.80;99.90;;;;;;5092829;28;19915;-68
2023/05/15 12:42:39;;;;;;;;;;;13.70;99.90;;;;;;5093070;28;19980;-68
2023/05/15 12:45:12;;;;;;;;;;;13.70;99.90;;;;;;5093556;28;19915;-69
2023/05/15 12:47:38;;;;;;;;;;;13.70;99.90;;;;;;5093315;28;19912;-68
2023/05/15 12:50:34;;;;;;;;;;;13.60;99.90;;;;;;5092563;28;19908;-69
2023/05/15 12:53:03;;;;;;;;;;;13.60;99.90;;;;;;5075404;28;19908;-68
2023/05/15 12:55:33;;;;;;;;;;;13.60;99.90;;;;;;5092880;28;20337;-69
2023/05/15 12:58:07;;;;;;;;;;;13.60;99.90;;;;;;5092849;28;20288;-68
2023/05/15 13:00:35;;;;;;;;;;;13.60;99.90;;;;;;5092862;28;20272;-68
2023/05/15 13:03:02;;;;;;;;;;;13.60;99.90;;;;;;5092646;28;19923;-70
2023/05/15 13:05:31;;;;;;;;;;;13.60;99.90;;;;;;5092866;28;19908;-69
2023/05/15 13:08:01;;;;;;;;;;;13.60;99.90;;;;;;5072384;28;19961;-68
2023/05/15 13:10:31;;;;;;;;;;;13.60;99.90;;;;;;5072649;28;19913;-68
2023/05/15 13:12:58;;;;;;;;;;;13.60;99.90;;;;;;5072671;28;19920;-68
2023/05/15 13:15:26;;;;;;;;;;;13.60;99.90;;;;;;5072694;28;19912;-68
2023/05/15 13:17:55;;;;;;;;;;;13.50;99.90;;;;;;5083308;28;19919;-68
2023/05/15 13:20:22;;;;;;;;;;;13.50;99.90;;;;;;5092601;28;19909;-70
2023/05/15 13:22:50;;;;;;;;;;;13.50;99.90;;;;;;5092276;28;20056;-69
2023/05/15 13:25:17;;;;;;;;;;;13.50;99.90;;;;;;5092496;28;19920;-69
2023/05/15 13:27:44;;;;;;;;;;;13.50;99.90;;;;;;5092061;28;20371;-68
2023/05/15 13:30:11;;;;;;;;;;;13.40;99.90;;;;;;5092788;28;19908;-68
2023/05/15 13:32:38;;;;;;;;;;;13.40;99.90;;;;;;5092477;28;19908;-69
2023/05/15 13:35:04;;;;;;;;;;;13.40;99.90;;;;;;5092552;28;20353;-68
2023/05/15 13:37:31;;;;;;;;;;;13.40;99.90;;;;;;5092298;28;19915;-69
2023/05/15 13:39:57;;;;;;;;;;;13.40;99.90;;;;;;5092564;28;20276;-68
2023/05/15 13:42:24;;;;;;;;;;;13.30;99.90;;;;;;5092405;28;19927;-66
2023/05/15 13:44:51;;;;;;;;;;;13.30;99.90;;;;;;5092509;28;20380;-70
2023/05/15 13:47:17;;;;;;;;;;;13.20;99.90;;;;;;5093038;28;20257;-69
2023/05/15 13:49:45;;;;;;;;;;;13.20;99.90;;;;;;5093020;28;20348;-67
2023/05/15 13:52:11;;;;;;;;;;;13.20;99.90;;;;;;5092432;28;19908;-67
2023/05/15 13:54:38;;;;;;;;;;;13.30;99.90;;;;;;5096108;28;19909;-67
2023/05/15 13:57:05;;;;;;;;;;;13.30;99.90;;;;;;5096521;28;20324;-66
2023/05/15 13:59:31;;;;;;;;;;;13.30;99.90;;;;;;5096397;28;19908;-67
2023/05/15 14:01:58;;;;;;;;;;;13.20;99.90;;;;;;5096087;28;20943;-67
2023/05/15 14:04:24;;;;;;;;;;;13.20;99.90;;;;;;5076874;28;19928;-67
2023/05/15 14:06:51;;;;;;;;;;;13.20;99.90;;;;;;5095559;28;19912;-67
2023/05/15 14:09:18;;;;;;;;;;;13.20;99.90;;;;;;5096274;28;19912;-67
2023/05/15 14:11:44;;;;;;;;;;;13.10;99.90;;;;;;5096248;28;19962;-67
2023/05/15 14:14:11;;;;;;;;;;;13.10;99.90;;;;;;5095586;28;19965;-68
2023/05/15 14:16:37;;;;;;;;;;;13.20;99.90;;;;;;5095992;28;20441;-67
2023/05/15 14:19:04;;;;;;;;;;;13.20;99.90;;;;;;5095771;28;20285;-67
2023/05/15 14:21:31;;;;;;;;;;;13.20;99.90;;;;;;5095362;28;20326;-67